createdAt,value
2019-01-14T00:00:05.367Z,29.50
2019-01-14T00:22:47.355Z,23.57
2019-01-14T00:25:15.761Z,27.93
2019-01-14T00:27:44.020Z,29.27
2019-01-14T00:30:14.882Z,25.40
2019-01-14T00:32:43.264Z,33.90
2019-01-14T00:35:11.642Z,29.87
2019-01-14T00:37:40.033Z,22.67
2019-01-14T00:40:13.858Z,27.03
2019-01-14T00:42:42.603Z,23.27
2019-01-14T00:45:11.053Z,32.57
2019-01-14T00:47:57.945Z,27.23
2019-01-14T00:50:26.734Z,36.07
2019-01-14T00:52:55.030Z,35.30
2019-01-14T00:55:23.800Z,20.30
2019-01-14T00:57:52.577Z,28.33
2019-01-14T01:00:22.822Z,24.03
2019-01-14T01:02:51.222Z,37.40
2019-01-14T01:05:19.589Z,30.27
2019-01-14T01:07:48.127Z,22.90
2019-01-14T01:10:17.472Z,26.93
2019-01-14T01:12:45.843Z,21.83
2019-01-14T01:15:15.464Z,27.90
2019-01-14T01:17:43.756Z,26.67
2019-01-14T01:20:14.608Z,24.77
2019-01-14T01:22:42.947Z,32.83
2019-01-14T01:25:11.616Z,29.90
2019-01-14T01:27:40.005Z,25.33
2019-01-14T01:30:17.724Z,29.27
2019-01-14T01:32:46.182Z,32.07
2019-01-14T01:35:14.689Z,26.63
2019-01-14T01:37:43.051Z,36.30
2019-01-14T01:40:16.959Z,28.73
2019-01-14T01:42:45.399Z,24.73
2019-01-14T01:45:14.296Z,31.37
2019-01-14T01:47:42.632Z,25.50
2019-01-14T01:50:13.897Z,24.40
2019-01-14T01:52:42.260Z,29.77
2019-01-14T01:55:11.036Z,27.87
2019-01-14T01:57:39.392Z,26.77
2019-01-14T02:00:13.486Z,28.30
2019-01-14T02:02:42.241Z,22.20
2019-01-14T02:05:11.537Z,23.47
2019-01-14T02:07:39.907Z,26.77
2019-01-14T02:10:11.493Z,27.43
2019-01-14T02:12:39.912Z,26.53
2019-01-14T02:15:10.911Z,23.20
2019-01-14T02:17:39.296Z,26.37
2019-01-14T02:20:11.438Z,30.00
2019-01-14T02:22:39.841Z,23.43
2019-01-14T02:25:08.841Z,25.87
2019-01-14T02:27:37.163Z,22.47
2019-01-14T02:30:08.776Z,22.03
2019-01-14T02:32:37.139Z,20.57
2019-01-14T02:35:08.332Z,30.70
2019-01-14T02:37:36.699Z,22.33
2019-01-14T02:40:08.367Z,22.87
2019-01-14T02:42:36.744Z,29.00
2019-01-14T02:45:06.847Z,22.50
2019-01-14T02:47:35.165Z,33.20
2019-01-14T02:50:05.160Z,26.43
2019-01-14T02:52:39.474Z,22.43
2019-01-14T02:55:04.561Z,18.70
2019-01-14T02:57:33.093Z,21.90
2019-01-14T03:00:01.485Z,24.70
2019-01-14T03:02:30.100Z,18.43
2019-01-14T03:04:58.427Z,29.07
2019-01-14T03:07:26.747Z,28.47
2019-01-14T03:09:55.425Z,26.87
2019-01-14T03:12:23.808Z,22.30
2019-01-14T03:14:52.173Z,27.30
2019-01-14T03:17:20.515Z,28.17
2019-01-14T03:19:48.862Z,22.20
2019-01-14T03:22:17.157Z,22.90
2019-01-14T03:24:45.474Z,17.17
2019-01-14T03:27:13.850Z,24.97
2019-01-14T03:29:42.252Z,24.63
2019-01-14T03:32:11.205Z,27.70
2019-01-14T03:34:39.581Z,25.20
2019-01-14T03:37:07.961Z,27.50
2019-01-14T03:39:36.631Z,29.77
2019-01-14T03:42:04.956Z,35.67
2019-01-14T03:44:33.333Z,28.20
2019-01-14T03:47:01.959Z,20.13
2019-01-14T03:49:30.293Z,26.23
2019-01-14T03:51:58.667Z,28.63
2019-01-14T03:54:27.039Z,29.20
2019-01-14T03:56:55.777Z,24.37
2019-01-14T03:59:24.187Z,29.73
2019-01-14T04:01:52.548Z,22.27
2019-01-14T04:04:20.918Z,27.57
2019-01-14T04:06:49.301Z,31.80
2019-01-14T04:09:17.591Z,22.87
2019-01-14T04:11:45.978Z,22.57
2019-01-14T04:14:14.337Z,25.00
2019-01-14T04:16:42.611Z,23.73
2019-01-14T04:19:10.920Z,23.80
2019-01-14T04:21:39.292Z,19.90
2019-01-14T04:24:08.008Z,29.10
2019-01-14T04:26:36.600Z,23.53
2019-01-14T04:29:04.974Z,25.13
2019-01-14T04:31:33.637Z,23.73
2019-01-14T04:34:02.002Z,21.50
2019-01-14T04:36:30.395Z,26.60
2019-01-14T04:38:59.381Z,27.10
2019-01-14T04:41:27.712Z,21.43
2019-01-14T04:43:56.033Z,24.97
2019-01-14T04:46:24.404Z,25.90
2019-01-14T04:48:52.716Z,21.13
2019-01-14T04:51:21.092Z,22.93
2019-01-14T04:53:49.505Z,23.67
2019-01-14T04:56:17.873Z,18.00
2019-01-14T04:58:46.254Z,27.83
2019-01-14T05:01:14.638Z,18.10
2019-01-14T05:03:44.707Z,26.37
2019-01-14T05:06:13.217Z,20.93
2019-01-14T05:08:41.580Z,21.07
2019-01-14T05:11:10.207Z,23.60
2019-01-14T05:13:38.577Z,22.63
2019-01-14T05:16:06.950Z,24.10
2019-01-14T05:18:35.738Z,24.47
2019-01-14T05:21:04.093Z,24.73
2019-01-14T05:23:32.802Z,25.67
2019-01-14T05:26:01.195Z,25.57
2019-01-14T05:28:29.551Z,27.67
2019-01-14T05:30:57.932Z,21.27
2019-01-14T05:33:26.315Z,21.87
2019-01-14T05:35:54.720Z,24.30
2019-01-14T05:38:23.097Z,25.33
2019-01-14T05:40:51.453Z,23.73
2019-01-14T05:43:19.765Z,25.50
2019-01-14T05:45:48.152Z,25.10
2019-01-14T05:48:16.545Z,31.80
2019-01-14T05:50:44.846Z,26.80
2019-01-14T05:53:13.140Z,27.73
2019-01-14T05:55:41.869Z,25.63
2019-01-14T05:58:10.238Z,25.73
2019-01-14T06:00:40.568Z,30.70
2019-01-14T06:03:08.927Z,29.50
2019-01-14T06:05:37.261Z,30.67
2019-01-14T06:08:05.611Z,26.83
2019-01-14T06:10:34.825Z,22.93
2019-01-14T06:13:03.142Z,20.30
2019-01-14T06:15:31.512Z,29.60
2019-01-14T06:17:59.918Z,29.93
2019-01-14T06:20:29.906Z,28.77
2019-01-14T06:22:58.234Z,28.27
2019-01-14T06:25:26.584Z,24.20
2019-01-14T06:27:54.911Z,32.07
2019-01-14T06:30:25.979Z,30.33
2019-01-14T06:32:54.263Z,27.33
2019-01-14T06:35:22.555Z,24.93
2019-01-14T06:37:52.502Z,38.10
2019-01-14T06:40:21.139Z,34.70
2019-01-14T06:42:49.817Z,33.17
2019-01-14T06:45:18.200Z,31.97
2019-01-14T06:47:46.488Z,27.83
2019-01-14T06:50:16.842Z,28.67
2019-01-14T06:52:45.205Z,27.87
2019-01-14T06:55:13.854Z,26.97
2019-01-14T06:57:42.224Z,27.23
2019-01-14T07:00:16.412Z,29.67
2019-01-14T07:02:45.111Z,23.13
2019-01-14T07:05:13.888Z,30.90
2019-01-14T07:07:42.301Z,36.10
2019-01-14T07:10:13.926Z,29.13
2019-01-14T07:12:42.360Z,36.27
2019-01-14T07:15:11.074Z,29.23
2019-01-14T07:17:39.422Z,31.20
2019-01-14T07:20:10.564Z,27.73
2019-01-14T07:22:38.927Z,34.77
2019-01-14T07:25:08.733Z,27.63
2019-01-14T07:27:37.112Z,31.70
2019-01-14T07:30:11.551Z,20.30
2019-01-14T07:32:39.843Z,25.67
2019-01-14T07:35:08.249Z,28.20
2019-01-14T07:37:36.601Z,29.37
2019-01-14T07:40:10.808Z,27.30
2019-01-14T07:42:39.200Z,38.43
2019-01-14T07:45:10.048Z,34.67
2019-01-14T07:47:38.408Z,33.70
2019-01-14T07:50:09.677Z,39.93
2019-01-14T07:52:38.048Z,22.37
2019-01-14T07:55:06.407Z,30.87
2019-01-14T07:57:34.802Z,30.40
2019-01-14T08:00:04.859Z,30.40
2019-01-14T08:02:33.258Z,25.03
2019-01-14T08:05:01.632Z,31.80
2019-01-14T08:07:29.994Z,21.87
2019-01-14T08:09:58.386Z,31.27
2019-01-14T08:12:26.758Z,30.57
2019-01-14T08:14:55.164Z,34.67
2019-01-14T08:17:23.525Z,23.03
2019-01-14T08:19:51.884Z,29.67
2019-01-14T08:22:20.653Z,28.70
2019-01-14T08:24:49.017Z,24.13
2019-01-14T08:27:17.349Z,26.90
2019-01-14T08:29:45.717Z,25.97
2019-01-14T08:32:14.457Z,25.43
2019-01-14T08:34:42.802Z,29.23
2019-01-14T08:37:11.136Z,19.97
2019-01-14T08:39:39.530Z,21.40
2019-01-14T08:42:09.294Z,24.47
2019-01-14T08:44:38.621Z,24.67
2019-01-14T08:47:06.960Z,28.93
2019-01-14T08:49:35.308Z,30.43
2019-01-14T08:52:04.017Z,23.40
2019-01-14T08:54:32.394Z,26.70
2019-01-14T08:57:00.821Z,25.80
2019-01-14T08:59:29.556Z,31.03
2019-01-14T09:01:57.885Z,25.40
2019-01-14T09:04:32.414Z,28.57
2019-01-14T09:06:56.272Z,22.53
2019-01-14T09:09:24.600Z,29.33
2019-01-14T09:11:53.030Z,20.93
2019-01-14T09:14:21.320Z,20.97
2019-01-14T09:16:50.136Z,22.90
2019-01-14T09:19:18.482Z,26.83
2019-01-14T09:21:46.895Z,18.77
2019-01-14T09:24:15.257Z,21.73
2019-01-14T09:26:44.960Z,23.77
2019-01-14T09:29:13.545Z,20.17
2019-01-14T09:31:42.285Z,32.60
2019-01-14T09:34:10.965Z,26.83
2019-01-14T09:36:39.252Z,25.63
2019-01-14T09:39:08.641Z,17.20
2019-01-14T09:41:37.135Z,21.60
2019-01-14T09:44:05.561Z,25.40
2019-01-14T09:46:33.941Z,27.93
2019-01-14T09:49:02.311Z,19.20
2019-01-14T09:51:31.055Z,23.90
2019-01-14T09:53:59.441Z,20.57
2019-01-14T09:56:27.810Z,26.40
2019-01-14T09:58:56.315Z,22.83
2019-01-14T10:01:24.624Z,29.97
2019-01-14T10:03:53.315Z,26.77
2019-01-14T10:06:21.656Z,30.27
2019-01-14T10:08:50.010Z,32.37
2019-01-14T10:11:18.398Z,25.63
2019-01-14T10:13:46.774Z,21.20
2019-01-14T10:16:15.169Z,22.67
2019-01-14T10:18:43.529Z,23.53
2019-01-14T10:21:11.895Z,22.33
2019-01-14T10:23:40.561Z,20.83
2019-01-14T10:26:09.624Z,21.53
2019-01-14T10:28:38.027Z,23.03
2019-01-14T10:31:06.398Z,24.30
2019-01-14T10:33:34.694Z,18.97
2019-01-14T10:36:03.443Z,17.30
2019-01-14T10:38:31.740Z,21.30
2019-01-14T10:41:00.138Z,31.50
2019-01-14T10:43:28.569Z,23.87
2019-01-14T10:45:56.918Z,25.90
2019-01-14T10:48:25.302Z,20.10
2019-01-14T10:50:53.667Z,22.10
2019-01-14T10:53:22.075Z,24.57
2019-01-14T10:55:50.497Z,22.97
2019-01-14T10:58:30.670Z,22.47
2019-01-14T11:01:02.846Z,15.63
2019-01-14T11:03:31.505Z,22.73
2019-01-14T11:06:00.257Z,21.27
2019-01-14T11:08:28.615Z,18.23
2019-01-14T11:10:56.992Z,17.77
2019-01-14T11:13:25.561Z,17.57
2019-01-14T11:15:54.170Z,21.40
2019-01-14T11:18:22.785Z,13.47
2019-01-14T11:20:51.867Z,13.00
2019-01-14T11:23:20.406Z,10.93
2019-01-14T11:25:49.234Z,20.23
2019-01-14T11:28:17.962Z,12.33
2019-01-14T11:30:46.476Z,11.60
2019-01-14T11:33:15.882Z,17.47
2019-01-14T11:35:44.561Z,13.73
2019-01-14T11:38:36.049Z,16.83
2019-01-14T11:41:04.630Z,15.47
2019-01-14T11:43:33.283Z,20.93
2019-01-14T11:46:02.002Z,9.97
2019-01-14T11:48:30.763Z,15.77
2019-01-14T11:51:01.202Z,15.53
2019-01-14T11:53:29.549Z,14.17
2019-01-14T11:55:57.858Z,21.23
2019-01-14T11:58:26.228Z,17.93
2019-01-14T12:00:54.608Z,17.90
2019-01-14T12:03:22.912Z,19.40
2019-01-14T12:05:51.300Z,14.27
2019-01-14T12:08:21.026Z,12.60
2019-01-14T12:10:49.577Z,9.70
2019-01-14T12:13:17.881Z,14.37
2019-01-14T12:15:46.172Z,13.10
2019-01-14T12:18:14.580Z,17.53
2019-01-14T12:20:42.954Z,12.13
2019-01-14T12:23:11.318Z,12.80
2019-01-14T12:25:39.700Z,9.63
2019-01-14T12:28:08.066Z,3.80
2019-01-14T12:30:37.612Z,11.23
2019-01-14T12:33:06.040Z,16.47
2019-01-14T12:35:34.409Z,10.77
2019-01-14T12:38:03.075Z,9.90
2019-01-14T12:40:31.435Z,14.47
2019-01-14T12:43:00.134Z,10.50
2019-01-14T12:45:28.489Z,6.77
2019-01-14T12:47:56.865Z,4.90
2019-01-14T12:50:25.335Z,10.27
2019-01-14T12:52:53.705Z,7.33
2019-01-14T12:55:22.077Z,8.87
2019-01-14T12:57:50.441Z,8.33
2019-01-14T13:00:26.808Z,9.43
2019-01-14T13:02:58.493Z,7.77
2019-01-14T13:05:25.699Z,6.37
2019-01-14T13:07:54.181Z,13.63
2019-01-14T13:10:22.535Z,12.03
2019-01-14T13:12:50.925Z,5.83
2019-01-14T13:15:26.697Z,9.23
2019-01-14T13:17:55.118Z,6.63
2019-01-14T13:20:23.920Z,6.50
2019-01-14T13:22:52.291Z,12.37
2019-01-14T13:25:20.685Z,7.53
2019-01-14T13:27:49.002Z,5.93
2019-01-14T13:30:20.224Z,5.13
2019-01-14T13:32:48.930Z,4.90
2019-01-14T13:35:17.386Z,6.60
2019-01-14T13:37:45.756Z,6.30
2019-01-14T13:40:14.551Z,6.07
2019-01-14T13:42:42.977Z,5.63
2019-01-14T13:45:17.299Z,5.93
2019-01-14T13:47:45.682Z,14.13
2019-01-14T13:50:16.598Z,10.53
2019-01-14T13:52:44.947Z,7.57
2019-01-14T13:55:13.440Z,11.07
2019-01-14T13:57:41.795Z,13.07
2019-01-14T14:00:15.677Z,12.03
2019-01-14T14:02:44.047Z,12.27
2019-01-14T14:05:12.658Z,5.73
2019-01-14T14:07:41.039Z,6.27
2019-01-14T14:10:12.751Z,4.97
2019-01-14T14:12:41.035Z,5.07
2019-01-14T14:15:12.220Z,6.27
2019-01-14T14:17:40.594Z,3.03
2019-01-14T14:20:12.010Z,6.17
2019-01-14T14:22:40.298Z,8.40
2019-01-14T14:25:10.396Z,3.60
2019-01-14T14:27:38.710Z,8.33
2019-01-14T14:30:24.742Z,4.33
2019-01-14T14:32:53.110Z,9.50
2019-01-14T14:35:21.492Z,5.43
2019-01-14T14:37:49.885Z,6.30
2019-01-14T14:40:18.245Z,5.57
2019-01-14T14:42:46.609Z,14.23
2019-01-14T14:45:15.393Z,5.63
2019-01-14T14:47:43.682Z,6.13
2019-01-14T14:50:14.988Z,7.37
2019-01-14T14:52:43.414Z,4.60
2019-01-14T14:55:11.760Z,7.50
2019-01-14T14:57:40.148Z,12.53
2019-01-14T15:00:12.667Z,9.80
2019-01-14T15:02:40.934Z,4.77
2019-01-14T15:05:10.299Z,7.70
2019-01-14T15:07:38.662Z,12.20
2019-01-14T15:10:10.150Z,7.93
2019-01-14T15:12:38.510Z,11.13
2019-01-14T15:15:08.577Z,9.00
2019-01-14T15:17:37.308Z,9.37
2019-01-14T15:20:08.874Z,13.10
2019-01-14T15:22:37.201Z,10.80
2019-01-14T15:25:05.848Z,10.50
2019-01-14T15:27:34.288Z,12.73
2019-01-14T15:30:03.011Z,14.73
2019-01-14T15:32:31.391Z,11.60
2019-01-14T15:34:59.755Z,12.37
2019-01-14T15:37:28.039Z,10.33
2019-01-14T15:40:03.016Z,15.63
2019-01-14T15:42:26.445Z,11.73
2019-01-14T15:44:54.835Z,15.13
2019-01-14T15:47:23.227Z,12.20
2019-01-14T15:49:51.550Z,13.63
2019-01-14T15:52:19.959Z,10.60
2019-01-14T15:54:48.316Z,15.73
2019-01-14T15:57:16.664Z,16.73
2019-01-14T15:59:45.004Z,14.37
2019-01-14T16:02:13.305Z,11.80
2019-01-14T16:04:41.681Z,13.50
2019-01-14T16:07:10.283Z,10.33
2019-01-14T16:09:38.637Z,14.77
2019-01-14T16:12:07.332Z,9.60
2019-01-14T16:14:35.764Z,13.87
2019-01-14T16:17:04.132Z,16.73
2019-01-14T16:19:32.494Z,12.53
2019-01-14T16:22:00.876Z,15.43
2019-01-14T16:24:29.292Z,12.57
2019-01-14T16:26:57.704Z,14.40
2019-01-14T16:29:26.043Z,15.77
2019-01-14T16:31:54.385Z,12.23
2019-01-14T16:34:22.775Z,11.83
2019-01-14T16:36:51.084Z,9.57
2019-01-14T16:39:19.464Z,8.43
2019-01-14T16:41:47.848Z,10.50
2019-01-14T16:44:16.216Z,9.17
2019-01-14T16:46:44.664Z,6.77
2019-01-14T16:49:13.418Z,8.40
2019-01-14T16:51:41.907Z,11.83
2019-01-14T16:54:10.272Z,7.97
2019-01-14T16:56:38.571Z,4.43
2019-01-14T16:59:07.028Z,9.10
2019-01-14T17:01:35.325Z,10.40
2019-01-14T17:04:03.899Z,7.10
2019-01-14T17:06:32.268Z,4.80
2019-01-14T17:09:00.640Z,11.77
2019-01-14T17:11:28.951Z,8.53
2019-01-14T17:13:57.324Z,12.17
2019-01-14T17:16:25.699Z,11.00
2019-01-14T17:18:54.082Z,11.20
2019-01-14T17:21:22.450Z,10.30
2019-01-14T17:23:50.824Z,5.80
2019-01-14T17:26:19.204Z,11.57
2019-01-14T17:28:47.575Z,9.57
2019-01-14T17:31:15.880Z,9.83
2019-01-14T17:33:44.551Z,8.03
2019-01-14T17:36:12.915Z,8.90
2019-01-14T17:38:41.292Z,15.23
2019-01-14T17:41:09.704Z,11.37
2019-01-14T17:43:38.063Z,9.93
2019-01-14T17:46:06.543Z,20.10
2019-01-14T17:48:34.897Z,12.03
2019-01-14T17:51:03.235Z,28.23
2019-01-14T17:53:31.766Z,16.03
2019-01-14T17:56:00.335Z,25.07
2019-01-14T17:58:28.721Z,19.37
2019-01-14T18:00:57.375Z,26.83
2019-01-14T18:03:25.733Z,29.63
2019-01-14T18:05:54.165Z,42.80
2019-01-14T18:08:22.523Z,32.37
2019-01-14T18:10:51.436Z,16.87
2019-01-14T18:13:19.780Z,16.77
2019-01-14T18:15:48.224Z,25.40
2019-01-14T18:18:16.582Z,14.87
2019-01-14T18:20:44.948Z,20.87
2019-01-14T18:23:13.377Z,24.97
2019-01-14T18:25:43.388Z,18.93
2019-01-14T18:28:14.655Z,19.33
2019-01-14T18:30:43.022Z,20.37
2019-01-14T18:33:11.392Z,20.50
2019-01-14T18:35:39.775Z,12.40
2019-01-14T18:38:08.154Z,11.13
2019-01-14T18:40:36.533Z,13.00
2019-01-14T18:43:04.908Z,13.80
2019-01-14T18:45:33.399Z,14.40
2019-01-14T18:48:01.973Z,12.13
2019-01-14T18:50:36.557Z,12.33
2019-01-14T18:53:05.346Z,17.17
2019-01-14T18:55:33.744Z,16.07
2019-01-14T18:58:02.154Z,19.03
2019-01-14T19:00:30.623Z,36.80
2019-01-14T19:02:58.983Z,48.97
2019-01-14T19:05:27.376Z,37.73
2019-01-14T19:07:55.776Z,32.20
2019-01-14T19:10:24.170Z,37.03
2019-01-14T19:12:52.552Z,19.90
2019-01-14T19:15:20.919Z,16.70
2019-01-14T19:17:49.604Z,14.13
2019-01-14T19:20:21.245Z,22.20
2019-01-14T19:22:49.640Z,34.07
2019-01-14T19:25:17.942Z,45.17
2019-01-14T19:27:46.303Z,62.47
2019-01-14T19:30:19.523Z,95.73
2019-01-14T19:32:47.916Z,99.23
2019-01-14T19:35:16.296Z,74.80
2019-01-14T19:37:44.675Z,62.27
2019-01-14T19:40:15.115Z,58.20
2019-01-14T19:42:43.500Z,64.70
2019-01-14T19:45:13.628Z,57.57
2019-01-14T19:47:42.044Z,29.77
2019-01-14T19:50:13.711Z,22.83
2019-01-14T19:52:42.065Z,21.27
2019-01-14T19:55:10.775Z,24.10
2019-01-14T19:57:39.144Z,27.50
2019-01-14T20:00:13.506Z,21.43
2019-01-14T20:02:41.877Z,19.27
2019-01-14T20:05:10.201Z,28.13
2019-01-14T20:07:38.542Z,35.53
2019-01-14T20:10:10.346Z,31.33
2019-01-14T20:12:38.670Z,25.53
2019-01-14T20:15:10.334Z,24.43
2019-01-14T20:17:38.634Z,20.80
2019-01-14T20:20:08.889Z,21.97
2019-01-14T20:22:37.245Z,22.17
2019-01-14T20:25:08.327Z,23.07
2019-01-14T20:27:36.697Z,21.97
2019-01-14T20:30:21.513Z,23.87
2019-01-14T20:32:50.240Z,35.70
2019-01-14T20:35:18.589Z,44.90
2019-01-14T20:37:46.931Z,32.87
2019-01-14T20:40:16.245Z,28.97
2019-01-14T20:42:44.778Z,37.83
2019-01-14T20:45:15.543Z,36.63
2019-01-14T20:47:43.807Z,44.73
2019-01-14T20:50:14.225Z,43.03
2019-01-14T20:52:42.605Z,51.77
2019-01-14T20:55:10.989Z,53.03
2019-01-14T20:57:39.355Z,49.77
2019-01-14T21:00:11.146Z,44.77
2019-01-14T21:02:39.507Z,44.17
2019-01-14T21:05:08.713Z,49.73
2019-01-14T21:07:37.103Z,49.93
2019-01-14T21:10:08.720Z,51.90
2019-01-14T21:12:37.408Z,50.87
2019-01-14T21:15:08.404Z,47.70
2019-01-14T21:17:37.308Z,42.40
2019-01-14T21:20:10.743Z,37.13
2019-01-14T21:22:39.104Z,46.53
2019-01-14T21:25:08.294Z,42.47
2019-01-14T21:27:36.990Z,43.67
2019-01-14T21:30:09.045Z,49.83
2019-01-14T21:32:37.439Z,46.73
2019-01-14T21:35:07.094Z,41.93
2019-01-14T21:37:35.477Z,36.07
2019-01-14T21:40:06.250Z,35.60
2019-01-14T21:42:34.914Z,34.10
2019-01-14T21:45:04.217Z,32.47
2019-01-14T21:47:32.946Z,35.07
2019-01-14T21:50:01.380Z,35.77
2019-01-14T21:52:29.767Z,32.60
2019-01-14T21:54:58.165Z,27.87
2019-01-14T21:57:26.479Z,28.80
2019-01-14T21:59:54.841Z,28.73
2019-01-14T22:02:23.228Z,29.60
2019-01-14T22:04:51.621Z,26.93
2019-01-14T22:07:19.999Z,35.23
2019-01-14T22:09:48.371Z,30.90
2019-01-14T22:12:16.743Z,25.43
2019-01-14T22:14:45.127Z,30.43
2019-01-14T22:17:13.504Z,29.97
2019-01-14T22:19:41.909Z,29.33
2019-01-14T22:22:10.355Z,29.27
2019-01-14T22:24:39.033Z,27.40
2019-01-14T22:27:07.736Z,31.27
2019-01-14T22:29:36.089Z,37.37
2019-01-14T22:32:04.866Z,35.80
2019-01-14T22:34:33.246Z,43.53
2019-01-14T22:37:01.619Z,42.77
2019-01-14T22:39:30.018Z,42.90
2019-01-14T22:41:58.404Z,47.50
2019-01-14T22:44:26.788Z,38.47
2019-01-14T22:46:55.147Z,38.70
2019-01-14T22:49:23.443Z,35.63
2019-01-14T22:51:52.187Z,33.40
2019-01-14T22:54:20.544Z,32.13
2019-01-14T22:56:49.042Z,30.40
2019-01-14T22:59:17.349Z,31.40
2019-01-14T23:01:45.962Z,33.10
2019-01-14T23:04:14.424Z,29.23
2019-01-14T23:06:42.720Z,29.50
2019-01-14T23:09:11.098Z,28.93
2019-01-14T23:11:39.396Z,33.17
2019-01-14T23:14:07.725Z,30.93
2019-01-14T23:16:36.034Z,32.03
2019-01-14T23:19:04.479Z,31.37
2019-01-14T23:21:34.925Z,26.70
2019-01-14T23:24:03.297Z,28.03
2019-01-14T23:26:31.583Z,30.50
2019-01-14T23:28:59.916Z,28.80
2019-01-14T23:31:28.294Z,29.73
2019-01-14T23:33:56.689Z,35.30
2019-01-14T23:36:25.382Z,34.93
2019-01-14T23:38:53.784Z,29.47
2019-01-14T23:41:22.152Z,30.00
2019-01-14T23:43:50.452Z,31.97
2019-01-14T23:46:18.827Z,30.87
2019-01-14T23:48:47.180Z,31.90
2019-01-14T23:51:15.609Z,31.40
2019-01-14T23:53:43.963Z,35.47
2019-01-14T23:56:12.336Z,34.20
2019-01-14T23:58:40.727Z,35.37
